PWSweather.com
Personal Weather Stations
Station Observations
CAMPIGIANO
Campi Bisenzio, FirenzeIT

Campi BisenzioFirenzeIT

Lat: 43.8175012, Lon: 11.1391085

Elevation: 106

Station Type: LaCrosse WS2350

Latest ConditionsUpdated 12:30:02 PM GMT+01:01 Friday, Feb 27, 2015
Currently Today's Max Today's Min Today's Average
Temperature 59.0°F15.0°C 59.9°F15.5°C 44.6°F7.0°C 50.3°F10.2°C
Dew Point 40.9°F4.9°C 42.5°F5.8°C 35.4°F1.9°C 38.3°F3.5°C
Winds Calm Calm 3.5 mph NNE5.6 kmh NNE - 0.4 mph 0.6 kmh
Wind Gusts -- 2.3 mph3.7 kmh - -
Humidity 51% 74% 51% 63%
Pressure 29.78 in1008.5 mb 29.90 in1012.5 mb 29.78 in1008.5 mb -
Hour Temp Dew Point Humidity Winds Wind Gusts Pressure Precip Precip Rate Daily Precip Total
12:30 PM 59.0°F15.0°C 40.9°F4.9°C 51% Calm Calm -- 29.78 in1008.5 mb 0.00 in0.0 mm 0.00 in/hr0.0 mm/hr 0.00 in0.0 mm
12:15 PM 59.9°F15.5°C 41.7°F5.4°C 51% 1.2 mph N1.9 kmh N 1.2 mph1.9 kmh 29.78 in1008.5 mb 0.00 in0.0 mm 0.00 in/hr0.0 mm/hr 0.00 in0.0 mm
12:00 PM 57.4°F14.1°C 39.9°F4.4°C 52% Calm Calm 2.3 mph3.7 kmh 29.79 in1008.8 mb 0.00 in0.0 mm 0.00 in/hr0.0 mm/hr 0.00 in0.0 mm
11:45 AM 57.4°F14.1°C 40.9°F4.9°C 54% Calm Calm 1.2 mph1.9 kmh 29.80 in1009.1 mb 0.00 in0.0 mm 0.00 in/hr0.0 mm/hr 0.00 in0.0 mm
11:30 AM 56.7°F13.7°C 40.7°F4.8°C 55% Calm Calm -- 29.80 in1009.1 mb 0.00 in0.0 mm 0.00 in/hr0.0 mm/hr 0.00 in0.0 mm
11:15 AM 56.1°F13.4°C 40.2°F4.6°C 55% Calm Calm -- 29.80 in1009.1 mb 0.00 in0.0 mm 0.00 in/hr0.0 mm/hr 0.00 in0.0 mm
11:00 AM 56.5°F13.6°C 40.5°F4.7°C 55% Calm Calm -- 29.80 in1009.1 mb 0.00 in0.0 mm 0.00 in/hr0.0 mm/hr 0.00 in0.0 mm
10:45 AM 56.7°F13.7°C 40.7°F4.8°C 55% Calm Calm -- 29.80 in1009.1 mb 0.00 in0.0 mm 0.00 in/hr0.0 mm/hr 0.00 in0.0 mm
10:30 AM 56.8°F13.8°C 40.8°F4.9°C 55% 2.3 mph NNE3.7 kmh NNE 1.2 mph1.9 kmh 29.80 in1009.1 mb 0.00 in0.0 mm 0.00 in/hr0.0 mm/hr 0.00 in0.0 mm
10:15 AM 55.8°F13.2°C 42.5°F5.8°C 61% Calm Calm -- 29.81 in1009.5 mb 0.00 in0.0 mm 0.00 in/hr0.0 mm/hr 0.00 in0.0 mm
10:00 AM 55.8°F13.2°C 42.5°F5.8°C 61% 1.2 mph NNE1.9 kmh NNE -- 29.81 in1009.5 mb 0.00 in0.0 mm 0.00 in/hr0.0 mm/hr 0.00 in0.0 mm
09:45 AM 55.0°F12.8°C 41.8°F5.4°C 61% Calm Calm -- 29.81 in1009.5 mb 0.00 in0.0 mm 0.00 in/hr0.0 mm/hr 0.00 in0.0 mm
09:30 AM 54.1°F12.3°C 41.8°F5.4°C 63% Calm Calm -- 29.81 in1009.5 mb 0.00 in0.0 mm 0.00 in/hr0.0 mm/hr 0.00 in0.0 mm
09:15 AM 51.3°F10.7°C 40.3°F4.6°C 66% Calm Calm -- 29.81 in1009.5 mb 0.00 in0.0 mm 0.00 in/hr0.0 mm/hr 0.00 in0.0 mm
09:00 AM 49.6°F9.8°C 39.9°F4.4°C 69% Calm Calm -- 29.81 in1009.5 mb 0.00 in0.0 mm 0.00 in/hr0.0 mm/hr 0.00 in0.0 mm
08:45 AM 47.8°F8.8°C 39.2°F4.0°C 72% Calm Calm -- 29.82 in1009.8 mb 0.00 in0.0 mm 0.00 in/hr0.0 mm/hr 0.00 in0.0 mm
08:30 AM 45.0°F7.2°C 37.2°F2.9°C 74% Calm Calm -- 29.82 in1009.8 mb 0.00 in0.0 mm 0.00 in/hr0.0 mm/hr 0.00 in0.0 mm
08:15 AM 44.6°F7.0°C 35.8°F2.1°C 71% Calm Calm -- 29.81 in1009.5 mb 0.00 in0.0 mm 0.00 in/hr0.0 mm/hr 0.00 in0.0 mm
08:00 AM 44.6°F7.0°C 35.4°F1.9°C 70% Calm Calm -- 29.81 in1009.5 mb 0.00 in0.0 mm 0.00 in/hr0.0 mm/hr 0.00 in0.0 mm
07:45 AM 46.8°F8.2°C 36.0°F2.2°C 66% Calm Calm -- 29.82 in1009.8 mb 0.00 in0.0 mm 0.00 in/hr0.0 mm/hr 0.00 in0.0 mm
07:30 AM 46.9°F8.3°C 36.2°F2.3°C 66% Calm Calm -- 29.82 in1009.8 mb 0.00 in0.0 mm 0.00 in/hr0.0 mm/hr 0.00 in0.0 mm
07:15 AM 47.1°F8.4°C 36.3°F2.4°C 66% Calm Calm -- 29.82 in1009.8 mb 0.00 in0.0 mm 0.00 in/hr0.0 mm/hr 0.00 in0.0 mm
07:00 AM 46.9°F8.3°C 36.2°F2.3°C 66% 1.2 mph NNE1.9 kmh NNE 1.2 mph1.9 kmh 29.82 in1009.8 mb 0.00 in0.0 mm 0.00 in/hr0.0 mm/hr 0.00 in0.0 mm
06:45 AM 47.5°F8.6°C 36.7°F2.6°C 66% Calm Calm -- 29.82 in1009.8 mb 0.00 in0.0 mm 0.00 in/hr0.0 mm/hr 0.00 in0.0 mm
06:30 AM 47.5°F8.6°C 36.7°F2.6°C 66% Calm Calm -- 29.81 in1009.5 mb 0.00 in0.0 mm 0.00 in/hr0.0 mm/hr 0.00 in0.0 mm
06:15 AM 47.3°F8.5°C 36.5°F2.5°C 66% 1.2 mph N1.9 kmh N -- 29.82 in1009.8 mb 0.00 in0.0 mm 0.00 in/hr0.0 mm/hr 0.00 in0.0 mm
06:00 AM 47.3°F8.5°C 36.5°F2.5°C 66% Calm Calm -- 29.82 in1009.8 mb 0.00 in0.0 mm 0.00 in/hr0.0 mm/hr 0.00 in0.0 mm
05:45 AM 47.8°F8.8°C 37.0°F2.8°C 66% Calm Calm -- 29.81 in1009.5 mb 0.00 in0.0 mm 0.00 in/hr0.0 mm/hr 0.00 in0.0 mm
05:30 AM 47.8°F8.8°C 37.4°F3.0°C 67% 1.2 mph NNW1.9 kmh NNW 1.2 mph1.9 kmh 29.81 in1009.5 mb 0.00 in0.0 mm 0.00 in/hr0.0 mm/hr 0.00 in0.0 mm
05:15 AM 47.5°F8.6°C 37.1°F2.8°C 67% Calm Calm -- 29.81 in1009.5 mb 0.00 in0.0 mm 0.00 in/hr0.0 mm/hr 0.00 in0.0 mm
05:00 AM 47.7°F8.7°C 36.9°F2.7°C 66% 1.2 mph ENE1.9 kmh ENE -- 29.82 in1009.8 mb 0.00 in0.0 mm 0.00 in/hr0.0 mm/hr 0.00 in0.0 mm
04:45 AM 47.8°F8.8°C 37.0°F2.8°C 66% Calm Calm -- 29.82 in1009.8 mb 0.00 in0.0 mm 0.00 in/hr0.0 mm/hr 0.00 in0.0 mm
04:30 AM 48.2°F9.0°C 37.4°F3.0°C 66% Calm Calm -- 29.82 in1009.8 mb 0.00 in0.0 mm 0.00 in/hr0.0 mm/hr 0.00 in0.0 mm
04:15 AM 48.4°F9.1°C 37.5°F3.1°C 66% Calm Calm -- 29.83 in1010.2 mb 0.00 in0.0 mm 0.00 in/hr0.0 mm/hr 0.00 in0.0 mm
04:00 AM 48.4°F9.1°C 37.5°F3.1°C 66% Calm Calm -- 29.83 in1010.2 mb 0.00 in0.0 mm 0.00 in/hr0.0 mm/hr 0.00 in0.0 mm
03:45 AM 48.4°F9.1°C 37.5°F3.1°C 66% Calm Calm -- 29.83 in1010.2 mb 0.00 in0.0 mm 0.00 in/hr0.0 mm/hr 0.00 in0.0 mm
03:30 AM 48.6°F9.2°C 37.3°F2.9°C 65% Calm Calm -- 29.84 in1010.5 mb 0.00 in0.0 mm 0.00 in/hr0.0 mm/hr 0.00 in0.0 mm
03:15 AM 48.7°F9.3°C 37.5°F3.1°C 65% 1.2 mph 1.9 kmh -- 29.84 in1010.5 mb 0.00 in0.0 mm 0.00 in/hr0.0 mm/hr 0.00 in0.0 mm
03:00 AM 48.9°F9.4°C 37.7°F3.2°C 65% Calm Calm -- 29.85 in1010.8 mb 0.00 in0.0 mm 0.00 in/hr0.0 mm/hr 0.00 in0.0 mm
02:45 AM 49.1°F9.5°C 37.8°F3.2°C 65% 1.2 mph NNE1.9 kmh NNE -- 29.85 in1010.8 mb 0.00 in0.0 mm 0.00 in/hr0.0 mm/hr 0.00 in0.0 mm
02:30 AM 49.3°F9.6°C 38.0°F3.3°C 65% Calm Calm -- 29.86 in1011.2 mb 0.00 in0.0 mm 0.00 in/hr0.0 mm/hr 0.00 in0.0 mm
02:15 AM 49.3°F9.6°C 38.0°F3.3°C 65% 1.2 mph NE1.9 kmh NE 1.2 mph1.9 kmh 29.87 in1011.5 mb 0.00 in0.0 mm 0.00 in/hr0.0 mm/hr 0.00 in0.0 mm
02:00 AM 49.1°F9.5°C 37.8°F3.2°C 65% Calm Calm -- 29.87 in1011.5 mb 0.00 in0.0 mm 0.00 in/hr0.0 mm/hr 0.00 in0.0 mm
01:45 AM 48.9°F9.4°C 37.3°F2.9°C 64% Calm Calm -- 29.87 in1011.5 mb 0.00 in0.0 mm 0.00 in/hr0.0 mm/hr 0.00 in0.0 mm
01:30 AM 49.1°F9.5°C 37.4°F3.0°C 64% Calm Calm -- 29.88 in1011.9 mb 0.00 in0.0 mm 0.00 in/hr0.0 mm/hr 0.00 in0.0 mm
01:15 AM 49.3°F9.6°C 37.6°F3.1°C 64% Calm Calm -- 29.88 in1011.9 mb 0.00 in0.0 mm 0.00 in/hr0.0 mm/hr 0.00 in0.0 mm
01:00 AM 49.3°F9.6°C 37.6°F3.1°C 64% Calm Calm -- 29.89 in1012.2 mb 0.00 in0.0 mm 0.00 in/hr0.0 mm/hr 0.00 in0.0 mm
12:45 AM 49.6°F9.8°C 37.6°F3.1°C 63% 1.2 mph E1.9 kmh E 1.2 mph1.9 kmh 29.89 in1012.2 mb 0.00 in0.0 mm 0.00 in/hr0.0 mm/hr 0.00 in0.0 mm
12:30 AM 49.3°F9.6°C 37.2°F2.9°C 63% 1.2 mph NNE1.9 kmh NNE 1.2 mph1.9 kmh 29.89 in1012.2 mb 0.00 in0.0 mm 0.00 in/hr0.0 mm/hr 0.00 in0.0 mm
12:15 AM 49.6°F9.8°C 37.6°F3.1°C 63% 3.5 mph NNE5.6 kmh NNE 2.3 mph3.7 kmh 29.89 in1012.2 mb 0.00 in0.0 mm 0.00 in/hr0.0 mm/hr 0.00 in0.0 mm
12:00 AM 49.5°F9.7°C 37.4°F3.0°C 63% Calm Calm -- 29.90 in1012.5 mb 0.00 in0.0 mm 0.00 in/hr0.0 mm/hr 0.00 in0.0 mm